createdAt,value
2022-10-15T00:01:17.093Z,95642.81
2022-10-15T00:04:18.675Z,95639.31
2022-10-15T00:07:20.308Z,95644.66
2022-10-15T00:10:23.118Z,95639.50
2022-10-15T00:13:24.652Z,95635.13
2022-10-15T00:16:28.397Z,95627.09
2022-10-15T00:19:30.233Z,95630.00
2022-10-15T00:22:31.815Z,95629.78
2022-10-15T00:25:33.343Z,95630.00
2022-10-15T00:28:35.147Z,95622.97
2022-10-15T00:31:36.826Z,95619.03
2022-10-15T00:34:41.441Z,95610.56
2022-10-15T00:37:44.091Z,95613.25
2022-10-15T00:40:45.679Z,95608.06
2022-10-15T00:43:54.663Z,95613.25
2022-10-15T00:47:18.077Z,95608.72
2022-10-15T00:50:27.387Z,95612.22
2022-10-15T00:53:29.107Z,95597.34
2022-10-15T00:56:32.624Z,95604.38
2022-10-15T00:59:39.019Z,95598.16
2022-10-15T01:02:41.055Z,95600.00
2022-10-15T01:05:44.025Z,95596.31
2022-10-15T01:08:46.033Z,95590.50
2022-10-15T01:11:50.883Z,95591.78
2022-10-15T01:15:03.462Z,95597.16
2022-10-15T01:18:22.368Z,95587.44
2022-10-15T01:21:26.953Z,95584.94
2022-10-15T01:24:59.555Z,95575.03
2022-10-15T01:28:18.893Z,95574.03
2022-10-15T01:31:32.014Z,95574.03
2022-10-15T01:34:38.812Z,95565.97
2022-10-15T01:37:55.621Z,95572.81
2022-10-15T01:41:06.037Z,95572.81
2022-10-15T01:44:13.506Z,95559.59
2022-10-15T01:47:43.707Z,95554.03
2022-10-15T01:50:49.698Z,95560.84
2022-10-15T01:53:52.369Z,95533.31
2022-10-15T01:56:55.977Z,95547.44
2022-10-15T01:59:58.716Z,95541.44
2022-10-15T02:03:01.158Z,95542.53
2022-10-15T02:06:09.895Z,95540.84
2022-10-15T02:09:32.498Z,95540.84
2022-10-15T02:12:55.009Z,95533.63
2022-10-15T02:16:11.205Z,95534.47
2022-10-15T02:19:36.894Z,95537.63
2022-10-15T02:22:46.602Z,95531.22
2022-10-15T02:25:52.614Z,95525.03
2022-10-15T02:28:58.048Z,95523.19
2022-10-15T02:32:02.021Z,95529.19
2022-10-15T02:35:09.066Z,95519.09
2022-10-15T02:38:16.607Z,95524.06
2022-10-15T02:41:18.902Z,95508.75
2022-10-15T02:44:21.993Z,95515.63
2022-10-15T02:47:26.550Z,95522.66
2022-10-15T02:50:28.461Z,95515.41
2022-10-15T02:53:30.039Z,95510.88
2022-10-15T02:56:31.854Z,95511.50
2022-10-15T02:59:34.423Z,95490.66
2022-10-15T03:02:36.503Z,95501.63
2022-10-15T03:05:38.827Z,95513.19
2022-10-15T03:08:42.226Z,95512.16
2022-10-15T03:11:44.767Z,95495.03
2022-10-15T03:14:46.379Z,95497.53
2022-10-15T03:17:49.327Z,95492.53
2022-10-15T03:20:55.073Z,95494.19
2022-10-15T03:23:58.195Z,95495.44
2022-10-15T03:26:59.790Z,95503.13
2022-10-15T03:30:01.518Z,95495.06
2022-10-15T03:33:06.011Z,95501.09
2022-10-15T03:36:08.864Z,95511.59
2022-10-15T03:39:12.281Z,95507.06
2022-10-15T03:42:14.576Z,95509.56
2022-10-15T03:45:25.875Z,95506.50
2022-10-15T03:48:44.383Z,95507.50
2022-10-15T03:51:48.774Z,95510.81
2022-10-15T03:54:52.078Z,95507.75
2022-10-15T03:57:55.376Z,95507.94
2022-10-15T04:00:57.105Z,95515.59
2022-10-15T04:03:58.714Z,95504.88
2022-10-15T04:07:01.182Z,95506.72
2022-10-15T04:10:04.821Z,95505.28
2022-10-15T04:13:12.583Z,95500.75
2022-10-15T04:16:15.640Z,95499.72
2022-10-15T04:19:18.007Z,95500.38
2022-10-15T04:22:28.331Z,95499.34
2022-10-15T04:25:35.906Z,95506.38
2022-10-15T04:28:37.605Z,95509.06
2022-10-15T04:31:40.081Z,95495.81
2022-10-15T04:34:42.349Z,95509.91
2022-10-15T04:37:44.716Z,95506.38
2022-10-15T04:40:46.474Z,95504.31
2022-10-15T04:43:48.253Z,95511.34
2022-10-15T04:46:49.978Z,95521.50
2022-10-15T04:50:17.578Z,95517.75
2022-10-15T04:53:38.281Z,95513.88
2022-10-15T04:56:39.957Z,95525.44
2022-10-15T04:59:42.279Z,95519.69
2022-10-15T05:03:02.500Z,95519.47
2022-10-15T05:06:18.735Z,95538.06
2022-10-15T05:09:21.258Z,95536.22
2022-10-15T05:12:25.460Z,95520.94
2022-10-15T05:15:31.502Z,95531.03
2022-10-15T05:18:41.042Z,95530.03
2022-10-15T05:21:43.485Z,95531.06
2022-10-15T05:24:55.180Z,95539.56
2022-10-15T05:28:02.230Z,95539.16
2022-10-15T05:31:08.749Z,95551.56
2022-10-15T05:34:12.551Z,95548.06
2022-10-15T05:37:28.719Z,95551.19
2022-10-15T05:40:32.903Z,95566.09
2022-10-15T05:43:55.954Z,95567.94
2022-10-15T05:47:00.682Z,95566.88
2022-10-15T05:50:02.869Z,95571.25
2022-10-15T05:53:14.461Z,95576.63
2022-10-15T05:56:26.775Z,95587.38
2022-10-15T05:59:28.853Z,95583.28
2022-10-15T06:02:30.539Z,95584.94
2022-10-15T06:05:32.189Z,95575.59
2022-10-15T06:08:33.704Z,95589.25
2022-10-15T06:11:36.762Z,95599.81
2022-10-15T06:14:38.338Z,95585.75
2022-10-15T06:17:41.580Z,95596.75
2022-10-15T06:20:51.150Z,95602.53
2022-10-15T06:23:52.728Z,95608.75
2022-10-15T06:26:54.345Z,95594.44
2022-10-15T06:29:58.680Z,95613.94
2022-10-15T06:33:00.626Z,95618.28
2022-10-15T06:36:04.880Z,95626.97
2022-10-15T06:39:10.178Z,95627.56
2022-10-15T06:42:13.414Z,95627.81
2022-10-15T06:45:18.103Z,95627.16
2022-10-15T06:48:22.679Z,95644.75
2022-10-15T06:51:24.267Z,95647.03
2022-10-15T06:54:25.930Z,95632.56
2022-10-15T06:57:28.309Z,95648.75
2022-10-15T07:00:30.102Z,95644.81
2022-10-15T07:03:32.700Z,95648.75
2022-10-15T07:06:35.466Z,95672.97
2022-10-15T07:09:37.090Z,95671.31
2022-10-15T07:12:38.721Z,95679.19
2022-10-15T07:15:40.301Z,95683.59
2022-10-15T07:18:41.924Z,95679.66
2022-10-15T07:21:43.616Z,95689.41
2022-10-15T07:24:45.932Z,95694.41
2022-10-15T07:27:47.598Z,95690.03
2022-10-15T07:30:49.288Z,95700.22
2022-10-15T07:33:50.964Z,95701.84
2022-10-15T07:36:52.681Z,95707.88
2022-10-15T07:39:54.235Z,95710.19
2022-10-15T07:42:58.074Z,95699.84
2022-10-15T07:46:06.264Z,95708.16
2022-10-15T07:49:09.313Z,95708.75
2022-10-15T07:52:11.159Z,95722.66
2022-10-15T07:55:12.759Z,95718.53
2022-10-15T07:58:14.426Z,95720.81
2022-10-15T08:01:16.051Z,95728.06
2022-10-15T08:04:20.409Z,95739.25
2022-10-15T08:07:24.088Z,95746.75
2022-10-15T08:10:26.027Z,95743.63
2022-10-15T08:13:27.823Z,95751.97
2022-10-15T08:16:29.891Z,95753.81
2022-10-15T08:19:34.442Z,95762.53
2022-10-15T08:22:36.360Z,95768.34
2022-10-15T08:25:37.947Z,95778.09
2022-10-15T08:28:39.590Z,95779.97
2022-10-15T08:31:42.035Z,95785.34
2022-10-15T08:34:43.676Z,95775.59
2022-10-15T08:37:45.296Z,95780.78
2022-10-15T08:40:57.801Z,95778.72
2022-10-15T08:43:59.879Z,95783.28
2022-10-15T08:47:10.503Z,95787.41
2022-10-15T08:50:28.143Z,95794.47
2022-10-15T08:53:30.827Z,95801.53
2022-10-15T08:56:39.429Z,95803.81
2022-10-15T08:59:58.357Z,95808.97
2022-10-15T09:03:30.370Z,95807.31
2022-10-15T09:06:38.549Z,95809.41
2022-10-15T09:09:53.937Z,95805.25
2022-10-15T09:13:02.771Z,95826.94
2022-10-15T09:16:17.875Z,95817.63
2022-10-15T09:19:23.437Z,95811.38
2022-10-15T09:22:30.881Z,95833.91
2022-10-15T09:25:36.392Z,95821.69
2022-10-15T09:28:45.136Z,95813.22
2022-10-15T09:31:51.286Z,95814.28
2022-10-15T09:35:16.828Z,95819.69
2022-10-15T09:38:21.179Z,95813.50
2022-10-15T09:41:22.632Z,95829.50
2022-10-15T09:44:32.032Z,95803.63
2022-10-15T09:47:36.083Z,95818.78
2022-10-15T09:50:45.332Z,95821.50
2022-10-15T09:54:02.487Z,95821.31
2022-10-15T09:57:08.302Z,95825.97
2022-10-15T10:00:13.535Z,95817.66
2022-10-15T10:03:15.687Z,95813.34
2022-10-15T10:06:17.500Z,95804.84
2022-10-15T10:09:53.806Z,95811.28
2022-10-15T10:12:56.668Z,95809.88
2022-10-15T10:16:05.891Z,95806.97
2022-10-15T10:19:15.653Z,95817.13
2022-10-15T10:22:19.936Z,95812.78
2022-10-15T10:25:28.979Z,95805.97
2022-10-15T10:28:40.502Z,95811.34
2022-10-15T10:31:45.195Z,95819.44
2022-10-15T10:35:03.706Z,95815.69
2022-10-15T10:38:05.297Z,95811.78
2022-10-15T10:41:09.920Z,95815.31
2022-10-15T10:44:20.421Z,95812.78
2022-10-15T10:47:24.389Z,95821.50
2022-10-15T10:50:34.197Z,95806.78
2022-10-15T10:53:51.372Z,95819.41
2022-10-15T10:56:55.507Z,95818.78
2022-10-15T10:59:57.621Z,95827.69
2022-10-15T11:02:59.414Z,95828.97
2022-10-15T11:06:22.710Z,95817.50
2022-10-15T11:09:24.279Z,95830.59
2022-10-15T11:12:48.220Z,95832.22
2022-10-15T11:16:11.582Z,95836.19
2022-10-15T11:23:26.561Z,95819.94
2022-10-15T11:26:59.444Z,95833.63
2022-10-15T11:30:58.396Z,95829.25
2022-10-15T11:34:03.113Z,95826.53
2022-10-15T11:37:19.670Z,95832.53
2022-10-15T11:40:34.570Z,95824.19
2022-10-15T11:43:38.946Z,95831.06
2022-10-15T11:46:58.738Z,95812.56
2022-10-15T11:50:00.247Z,95825.03
2022-10-15T11:53:26.180Z,95842.75
2022-10-15T11:56:43.026Z,95822.38
2022-10-15T11:59:56.779Z,95828.41
2022-10-15T12:03:07.139Z,95822.34
2022-10-15T12:06:14.460Z,95820.06
2022-10-15T12:09:39.643Z,95829.38
2022-10-15T12:12:45.285Z,95814.22
2022-10-15T12:16:12.010Z,95806.97
2022-10-15T12:19:24.411Z,95796.56
2022-10-15T12:22:40.531Z,95804.66
2022-10-15T12:25:46.487Z,95810.91
2022-10-15T12:28:50.585Z,95802.59
2022-10-15T12:31:55.716Z,95802.81
2022-10-15T12:35:04.468Z,95802.41
2022-10-15T12:38:21.803Z,95801.78
2022-10-15T12:41:35.644Z,95803.44
2022-10-15T12:44:38.281Z,95790.78
2022-10-15T12:48:16.733Z,95798.00
2022-10-15T12:51:23.888Z,95807.75
2022-10-15T12:54:44.793Z,95806.09
2022-10-15T12:57:56.042Z,95800.09
2022-10-15T13:00:57.957Z,95802.34
2022-10-15T13:04:00.456Z,95792.56
2022-10-15T13:07:05.496Z,95791.31
2022-10-15T13:10:38.322Z,95775.72
2022-10-15T13:13:43.456Z,95779.88
2022-10-15T13:16:46.983Z,95779.81
2022-10-15T13:19:56.424Z,95781.06
2022-10-15T13:23:33.034Z,95787.66
2022-10-15T13:26:34.758Z,95787.25
2022-10-15T13:29:36.354Z,95780.78
2022-10-15T13:32:56.706Z,95776.25
2022-10-15T13:36:08.786Z,95788.72
2022-10-15T13:43:01.219Z,95788.28
2022-10-15T13:46:03.120Z,95789.94
2022-10-15T13:49:12.939Z,95792.19
2022-10-15T13:52:14.533Z,95790.72
2022-10-15T13:55:24.970Z,95787.97
2022-10-15T13:58:29.454Z,95787.56
2022-10-15T14:01:33.253Z,95781.91
2022-10-15T14:04:35.191Z,95785.22
2022-10-15T14:07:36.734Z,95776.91
2022-10-15T14:10:38.292Z,95779.75
2022-10-15T14:13:54.706Z,95780.59
2022-10-15T14:16:58.248Z,95789.97
2022-10-15T14:20:31.751Z,95793.13
2022-10-15T14:23:26.923Z,95787.72
2022-10-15T14:26:31.503Z,95793.56
2022-10-15T14:29:48.875Z,95794.59
2022-10-15T14:32:52.495Z,95795.06
2022-10-15T14:36:23.995Z,95798.84
2022-10-15T14:39:32.481Z,95797.66
2022-10-15T14:42:37.950Z,95800.59
2022-10-15T14:45:41.594Z,95794.94
2022-10-15T14:48:44.605Z,95792.28
2022-10-15T14:51:52.505Z,95801.44
2022-10-15T14:55:09.492Z,95801.88
2022-10-15T14:58:22.440Z,95812.69
2022-10-15T15:01:24.698Z,95810.63
2022-10-15T15:04:40.386Z,95808.38
2022-10-15T15:07:41.928Z,95807.53
2022-10-15T15:10:44.736Z,95804.22
2022-10-15T15:13:47.851Z,95801.13
2022-10-15T15:16:49.362Z,95802.34
2022-10-15T15:19:52.597Z,95795.31
2022-10-15T15:22:55.204Z,95802.38
2022-10-15T15:25:56.872Z,95802.00
2022-10-15T15:28:58.554Z,95810.53
2022-10-15T15:32:02.450Z,95805.78
2022-10-15T15:35:16.333Z,95793.50
2022-10-15T15:38:23.600Z,95793.09
2022-10-15T15:41:25.755Z,95796.03
2022-10-15T15:44:27.343Z,95804.56
2022-10-15T15:47:33.865Z,95804.97
2022-10-15T15:50:36.488Z,95810.41
2022-10-15T15:53:38.014Z,95820.81
2022-10-15T15:56:41.223Z,95827.06
2022-10-15T15:59:42.792Z,95810.06
2022-10-15T16:02:44.830Z,95820.22
2022-10-15T16:05:46.645Z,95821.72
2022-10-15T16:08:51.352Z,95812.34
2022-10-15T16:11:53.550Z,95809.47
2022-10-15T16:14:55.868Z,95810.31
2022-10-15T16:17:57.401Z,95825.06
2022-10-15T16:20:59.291Z,95823.81
2022-10-15T16:27:07.620Z,95829.84
2022-10-15T16:30:09.936Z,95831.50
2022-10-15T16:33:11.611Z,95843.50
2022-10-15T16:36:13.328Z,95846.66
2022-10-15T16:39:14.854Z,95841.66
2022-10-15T16:45:24.096Z,95853.28
2022-10-15T16:48:26.677Z,95853.47
2022-10-15T16:51:28.578Z,95868.44
2022-10-15T16:54:30.134Z,95867.59
2022-10-15T16:57:31.759Z,95870.69
2022-10-15T17:00:33.348Z,95871.53
2022-10-15T17:03:37.366Z,95868.63
2022-10-15T17:06:38.900Z,95872.75
2022-10-15T17:09:40.703Z,95887.06
2022-10-15T17:12:42.281Z,95872.34
2022-10-15T17:15:43.812Z,95887.25
2022-10-15T17:18:46.951Z,95896.00
2022-10-15T17:21:48.550Z,95886.84
2022-10-15T17:24:50.110Z,95888.53
2022-10-15T17:27:52.513Z,95903.03
2022-10-15T17:30:54.074Z,95911.75
2022-10-15T17:34:02.242Z,95902.38
2022-10-15T17:37:04.609Z,95916.50
2022-10-15T17:40:06.788Z,95911.69
2022-10-15T17:43:09.143Z,95918.16
2022-10-15T17:46:16.105Z,95913.97
2022-10-15T17:49:18.777Z,95910.44
2022-10-15T17:52:20.349Z,95913.31
2022-10-15T17:55:22.062Z,95913.50
2022-10-15T17:58:24.841Z,95914.97
2022-10-15T18:01:39.222Z,95921.78
2022-10-15T18:04:51.196Z,95922.19
2022-10-15T18:07:52.736Z,95928.16
2022-10-15T18:10:54.341Z,95927.75
2022-10-15T18:13:55.887Z,95931.25
2022-10-15T18:16:57.768Z,95929.38
2022-10-15T18:19:59.431Z,95929.72
2022-10-15T18:23:01.336Z,95933.22
2022-10-15T18:26:06.284Z,95933.38
2022-10-15T18:29:08.527Z,95943.91
2022-10-15T18:32:11.642Z,95954.00
2022-10-15T18:35:13.208Z,95954.78
2022-10-15T18:38:16.259Z,95959.13
2022-10-15T18:44:50.946Z,95947.19
2022-10-15T18:47:52.612Z,95950.50
2022-10-15T18:50:54.857Z,95946.72
2022-10-15T18:53:56.462Z,95951.66
2022-10-15T18:56:58.012Z,95951.59
2022-10-15T18:59:59.532Z,95946.16
2022-10-15T19:03:01.128Z,95953.16
2022-10-15T19:06:02.739Z,95950.97
2022-10-15T19:09:08.007Z,95959.03
2022-10-15T19:12:09.594Z,95968.53
2022-10-15T19:15:11.723Z,95965.38
2022-10-15T19:18:15.723Z,95970.31
2022-10-15T19:21:17.679Z,95976.72
2022-10-15T19:24:21.624Z,95975.91
2022-10-15T19:27:23.526Z,95970.88
2022-10-15T19:30:25.838Z,95978.94
2022-10-15T19:33:29.088Z,95983.72
2022-10-15T19:36:34.330Z,95986.56
2022-10-15T19:39:35.951Z,95984.03
2022-10-15T19:42:37.536Z,95981.94
2022-10-15T19:45:44.497Z,95992.50
2022-10-15T19:48:46.173Z,95987.31
2022-10-15T19:51:48.893Z,95998.25
2022-10-15T19:54:50.573Z,95993.72
2022-10-15T19:57:52.110Z,95991.88
2022-10-15T20:00:54.789Z,95998.25
2022-10-15T20:04:06.159Z,96000.94
2022-10-15T20:07:08.556Z,96007.16
2022-10-15T20:10:10.829Z,96010.03
2022-10-15T20:13:14.547Z,96005.50
2022-10-15T20:16:18.449Z,96025.97
2022-10-15T20:19:22.732Z,96007.94
2022-10-15T20:22:24.695Z,96018.09
2022-10-15T20:25:26.408Z,96015.22
2022-10-15T20:28:28.213Z,96010.03
2022-10-15T20:31:33.037Z,96023.47
2022-10-15T20:34:35.049Z,96032.19
2022-10-15T20:37:36.615Z,96030.34
2022-10-15T20:40:39.903Z,96042.94
2022-10-15T20:43:42.581Z,96037.56
2022-10-15T20:46:48.999Z,96040.25
2022-10-15T20:49:53.181Z,96046.00
2022-10-15T20:52:57.104Z,96050.53
2022-10-15T20:55:58.706Z,96047.03
2022-10-15T20:59:00.256Z,96057.16
2022-10-15T21:02:01.778Z,96058.81
2022-10-15T21:05:03.546Z,96057.34
2022-10-15T21:08:05.279Z,96058.34
2022-10-15T21:11:08.113Z,96057.69
2022-10-15T21:14:10.770Z,96065.97
2022-10-15T21:17:12.984Z,96077.09
2022-10-15T21:20:14.599Z,96079.31
2022-10-15T21:23:16.156Z,96076.00
2022-10-15T21:26:18.944Z,96067.63
2022-10-15T21:29:20.879Z,96075.06
2022-10-15T21:32:22.419Z,96083.31
2022-10-15T21:35:24.546Z,96086.56
2022-10-15T21:38:26.101Z,96086.75
2022-10-15T21:41:30.587Z,96077.19
2022-10-15T21:44:33.045Z,96079.63
2022-10-15T21:47:34.578Z,96087.03
2022-10-15T21:50:36.135Z,96108.69
2022-10-15T21:53:37.835Z,96098.34
2022-10-15T21:56:40.044Z,96101.38
2022-10-15T21:59:41.825Z,96106.09
2022-10-15T22:02:43.385Z,96104.44
2022-10-15T22:05:45.038Z,96110.19
2022-10-15T22:08:47.226Z,96103.97
2022-10-15T22:11:48.765Z,96098.50
2022-10-15T22:14:50.286Z,96108.88
2022-10-15T22:17:51.882Z,96108.88
2022-10-15T22:20:53.418Z,96109.06
2022-10-15T22:23:56.257Z,96107.22
2022-10-15T22:26:57.814Z,96102.19
2022-10-15T22:29:59.324Z,96100.72
2022-10-15T22:33:00.941Z,96106.09
2022-10-15T22:36:04.516Z,96101.91
2022-10-15T22:39:07.095Z,96095.06
2022-10-15T22:42:08.670Z,96091.91
2022-10-15T22:45:10.305Z,96097.81
2022-10-15T22:48:11.996Z,96111.44
2022-10-15T22:51:14.185Z,96111.97
2022-10-15T22:54:18.001Z,96109.66
2022-10-15T22:57:20.320Z,96103.81
2022-10-15T23:00:21.985Z,96110.75
2022-10-15T23:03:23.661Z,96106.75
2022-10-15T23:06:26.251Z,96104.25
2022-10-15T23:09:27.811Z,96111.00
2022-10-15T23:12:29.360Z,96105.16
2022-10-15T23:15:30.903Z,96113.72
2022-10-15T23:18:32.873Z,96110.56
2022-10-15T23:21:41.859Z,96115.44
2022-10-15T23:24:43.375Z,96121.34
2022-10-15T23:27:45.446Z,96117.38
2022-10-15T23:30:46.958Z,96112.53
2022-10-15T23:33:48.554Z,96106.69
2022-10-15T23:36:50.734Z,96114.09
2022-10-15T23:39:53.870Z,96104.53
2022-10-15T23:42:55.387Z,96089.66
2022-10-15T23:45:57.422Z,96100.56
2022-10-15T23:48:58.954Z,96128.56
2022-10-15T23:52:00.562Z,96143.19
2022-10-15T23:55:02.098Z,96147.88
2022-10-15T23:58:03.650Z,96140.16
